aviador You're here:

KLSF Decoded Metar

FORT BENNING in GA, USA
Report Time2018-01-18 10:56:00
UTC Time2018-01-18 11:49:26
Flight Rules vfr VFR
Wind240° at 04 kt
W.Decomp.*RWY 33: 0.1 kt HW 4 kt LCW
W.Rank240° ranks 31
Current wind is below 240° avg. (5.2)
Visibility9999 m
Phenomena:N/A
Clouds:N/A
Expected CloudBase > 1,600 ft AGL from Temp-Dew spread
CeilingNone
Temp-8°C (ISA -23)
Dew Point-12°C (73% RH)
AAT-12.6°C
QNH1032 hPa
Density Alt-3,186 ft
Elevation233 ft
Report Wrong Elevation
Raw Report
KLSF 181056Z AUTO 24004KT 10SM CLR M08/M12 A3048 RMK AO2 SLP330
T10811119 $=

Extra information for KLSF:More info

Metar Taf Metar & Taf Last 4 Metars F.Rules Stats Wind Profile Meteogram Temp Stats Airport Information Weather charts Add Link Nearby VenuesMetar ALERT Operation Metar Decoded Social comments

AIRNAV info for KLSF